Aviation Digital Data Service (ADDS)

Output produced by METARs form (1638 UTC 03 June 2020)
found at http://www.aviationweather.gov/metar/data/
 
METAR text: DAAG 031630Z 04007KT CAVOK 25/18 Q1009
Conditions at: DAAG (DAR-EL-BEIDA/HOU, DZ) observed 1630 UTC 03 June 2020
Temperature: 25.0°C (77°F)
Dewpoint: 18.0°C (64°F) [RH = 65%]
Pressure (altimeter): 29.79 inches Hg (1009.0 mb)
Winds: from the NE (40 degrees) at 8 MPH (7 knots; 3.6 m/s)
Visibility: 6 or more miles (10+ km)
Ceiling: ceiling and visibility are OK
Clouds: unknown
Weather: no significant weather observed at this time

METAR text: DAAG 031600Z 04007KT 010V080 CAVOK 25/17 Q1009
Conditions at: DAAG (DAR-EL-BEIDA/HOU, DZ) observed 1600 UTC 03 June 2020
Temperature: 25.0°C (77°F)
Dewpoint: 17.0°C (63°F) [RH = 61%]
Pressure (altimeter): 29.79 inches Hg (1009.0 mb)
Winds: from the NE (40 degrees) at 8 MPH (7 knots; 3.6 m/s)
Visibility: 6 or more miles (10+ km)
Ceiling: ceiling and visibility are OK
Clouds: unknown
Weather: no significant weather observed at this time

METAR text: DAAG 031530Z 03007KT 330V050 CAVOK 25/18 Q1009
Conditions at: DAAG (DAR-EL-BEIDA/HOU, DZ) observed 1530 UTC 03 June 2020
Temperature: 25.0°C (77°F)
Dewpoint: 18.0°C (64°F) [RH = 65%]
Pressure (altimeter): 29.79 inches Hg (1009.0 mb)
Winds: from the NNE (30 degrees) at 8 MPH (7 knots; 3.6 m/s)
Visibility: 6 or more miles (10+ km)
Ceiling: ceiling and visibility are OK
Clouds: unknown
Weather: no significant weather observed at this time

METAR text: DAAG 031500Z 03008KT CAVOK 25/17 Q1009
Conditions at: DAAG (DAR-EL-BEIDA/HOU, DZ) observed 1500 UTC 03 June 2020
Temperature: 25.0°C (77°F)
Dewpoint: 17.0°C (63°F) [RH = 61%]
Pressure (altimeter): 29.79 inches Hg (1009.0 mb)
Winds: from the NNE (30 degrees) at 9 MPH (8 knots; 4.1 m/s)
Visibility: 6 or more miles (10+ km)
Ceiling: ceiling and visibility are OK
Clouds: unknown
Weather: no significant weather observed at this time

METAR text: DAAG 031430Z 02009KT CAVOK 25/17 Q1010
Conditions at: DAAG (DAR-EL-BEIDA/HOU, DZ) observed 1430 UTC 03 June 2020
Temperature: 25.0°C (77°F)
Dewpoint: 17.0°C (63°F) [RH = 61%]
Pressure (altimeter): 29.82 inches Hg (1010.0 mb)
Winds: from the NNE (20 degrees) at 10 MPH (9 knots; 4.6 m/s)
Visibility: 6 or more miles (10+ km)
Ceiling: ceiling and visibility are OK
Clouds: unknown
Weather: no significant weather observed at this time

METAR text: DAAG 031400Z 02011KT CAVOK 26/17 Q1010
Conditions at: DAAG (DAR-EL-BEIDA/HOU, DZ) observed 1400 UTC 03 June 2020
Temperature: 26.0°C (79°F)
Dewpoint: 17.0°C (63°F) [RH = 58%]
Pressure (altimeter): 29.82 inches Hg (1010.0 mb)
Winds: from the NNE (20 degrees) at 13 MPH (11 knots; 5.7 m/s)
Visibility: 6 or more miles (10+ km)
Ceiling: ceiling and visibility are OK
Clouds: unknown
Weather: no significant weather observed at this time

METAR text: DAAG 031330Z 02011KT CAVOK 26/18 Q1010
Conditions at: DAAG (DAR-EL-BEIDA/HOU, DZ) observed 1330 UTC 03 June 2020
Temperature: 26.0°C (79°F)
Dewpoint: 18.0°C (64°F) [RH = 61%]
Pressure (altimeter): 29.82 inches Hg (1010.0 mb)
Winds: from the NNE (20 degrees) at 13 MPH (11 knots; 5.7 m/s)
Visibility: 6 or more miles (10+ km)
Ceiling: ceiling and visibility are OK
Clouds: unknown
Weather: no significant weather observed at this time

METAR text: DAAG 031300Z 03012KT CAVOK 26/17 Q1010
Conditions at: DAAG (DAR-EL-BEIDA/HOU, DZ) observed 1300 UTC 03 June 2020
Temperature: 26.0°C (79°F)
Dewpoint: 17.0°C (63°F) [RH = 58%]
Pressure (altimeter): 29.82 inches Hg (1010.0 mb)
Winds: from the NNE (30 degrees) at 14 MPH (12 knots; 6.2 m/s)
Visibility: 6 or more miles (10+ km)
Ceiling: ceiling and visibility are OK
Clouds: unknown
Weather: no significant weather observed at this time

METAR text: DAAG 031230Z 03013KT CAVOK 27/18 Q1010
Conditions at: DAAG (DAR-EL-BEIDA/HOU, DZ) observed 1230 UTC 03 June 2020
Temperature: 27.0°C (81°F)
Dewpoint: 18.0°C (64°F) [RH = 58%]
Pressure (altimeter): 29.82 inches Hg (1010.0 mb)
Winds: from the NNE (30 degrees) at 15 MPH (13 knots; 6.7 m/s)
Visibility: 6 or more miles (10+ km)
Ceiling: ceiling and visibility are OK
Clouds: unknown
Weather: no significant weather observed at this time

METAR text: DAAG 031200Z 03012KT CAVOK 27/18 Q1011
Conditions at: DAAG (DAR-EL-BEIDA/HOU, DZ) observed 1200 UTC 03 June 2020
Temperature: 27.0°C (81°F)
Dewpoint: 18.0°C (64°F) [RH = 58%]
Pressure (altimeter): 29.85 inches Hg (1011.0 mb)
Winds: from the NNE (30 degrees) at 14 MPH (12 knots; 6.2 m/s)
Visibility: 6 or more miles (10+ km)
Ceiling: ceiling and visibility are OK
Clouds: unknown
Weather: no significant weather observed at this time

METAR text: DAAG 031130Z 03010KT CAVOK 27/18 Q1011
Conditions at: DAAG (DAR-EL-BEIDA/HOU, DZ) observed 1130 UTC 03 June 2020
Temperature: 27.0°C (81°F)
Dewpoint: 18.0°C (64°F) [RH = 58%]
Pressure (altimeter): 29.85 inches Hg (1011.0 mb)
Winds: from the NNE (30 degrees) at 12 MPH (10 knots; 5.1 m/s)
Visibility: 6 or more miles (10+ km)
Ceiling: ceiling and visibility are OK
Clouds: unknown
Weather: no significant weather observed at this time

METAR text: DAAG 031100Z 35007KT 270V060 CAVOK 27/18 Q1011
Conditions at: DAAG (DAR-EL-BEIDA/HOU, DZ) observed 1100 UTC 03 June 2020
Temperature: 27.0°C (81°F)
Dewpoint: 18.0°C (64°F) [RH = 58%]
Pressure (altimeter): 29.85 inches Hg (1011.0 mb)
Winds: from the N (350 degrees) at 8 MPH (7 knots; 3.6 m/s)
Visibility: 6 or more miles (10+ km)
Ceiling: ceiling and visibility are OK
Clouds: unknown
Weather: no significant weather observed at this time

METAR text: DAAG 031030Z 31005KT 210V010 CAVOK 27/16 Q1011
Conditions at: DAAG (DAR-EL-BEIDA/HOU, DZ) observed 1030 UTC 03 June 2020
Temperature: 27.0°C (81°F)
Dewpoint: 16.0°C (61°F) [RH = 51%]
Pressure (altimeter): 29.85 inches Hg (1011.0 mb)
Winds: from the NW (310 degrees) at 6 MPH (5 knots; 2.6 m/s)
Visibility: 6 or more miles (10+ km)
Ceiling: ceiling and visibility are OK
Clouds: unknown
Weather: no significant weather observed at this time

METAR text: DAAG 031000Z 28006KT 230V340 CAVOK 26/17 Q1012
Conditions at: DAAG (DAR-EL-BEIDA/HOU, DZ) observed 1000 UTC 03 June 2020
Temperature: 26.0°C (79°F)
Dewpoint: 17.0°C (63°F) [RH = 58%]
Pressure (altimeter): 29.88 inches Hg (1012.0 mb)
Winds: from the W (280 degrees) at 7 MPH (6 knots; 3.1 m/s)
Visibility: 6 or more miles (10+ km)
Ceiling: ceiling and visibility are OK
Clouds: unknown
Weather: no significant weather observed at this time

METAR text: DAAG 030930Z 28008KT 240V300 CAVOK 26/17 Q1012
Conditions at: DAAG (DAR-EL-BEIDA/HOU, DZ) observed 0930 UTC 03 June 2020
Temperature: 26.0°C (79°F)
Dewpoint: 17.0°C (63°F) [RH = 58%]
Pressure (altimeter): 29.88 inches Hg (1012.0 mb)
Winds: from the W (280 degrees) at 9 MPH (8 knots; 4.1 m/s)
Visibility: 6 or more miles (10+ km)
Ceiling: ceiling and visibility are OK
Clouds: unknown
Weather: no significant weather observed at this time

METAR text: DAAG 030900Z 27009KT 230V320 CAVOK 25/17 Q1012
Conditions at: DAAG (DAR-EL-BEIDA/HOU, DZ) observed 0900 UTC 03 June 2020
Temperature: 25.0°C (77°F)
Dewpoint: 17.0°C (63°F) [RH = 61%]
Pressure (altimeter): 29.88 inches Hg (1012.0 mb)
Winds: from the W (270 degrees) at 10 MPH (9 knots; 4.6 m/s)
Visibility: 6 or more miles (10+ km)
Ceiling: ceiling and visibility are OK
Clouds: unknown
Weather: no significant weather observed at this time

METAR text: DAAG 030830Z 29009KT 250V320 CAVOK 24/17 Q1012
Conditions at: DAAG (DAR-EL-BEIDA/HOU, DZ) observed 0830 UTC 03 June 2020
Temperature: 24.0°C (75°F)
Dewpoint: 17.0°C (63°F) [RH = 65%]
Pressure (altimeter): 29.88 inches Hg (1012.0 mb)
Winds: from the WNW (290 degrees) at 10 MPH (9 knots; 4.6 m/s)
Visibility: 6 or more miles (10+ km)
Ceiling: ceiling and visibility are OK
Clouds: unknown
Weather: no significant weather observed at this time

METAR text: DAAG 030800Z 29010KT CAVOK 23/17 Q1012
Conditions at: DAAG (DAR-EL-BEIDA/HOU, DZ) observed 0800 UTC 03 June 2020
Temperature: 23.0°C (73°F)
Dewpoint: 17.0°C (63°F) [RH = 69%]
Pressure (altimeter): 29.88 inches Hg (1012.0 mb)
Winds: from the WNW (290 degrees) at 12 MPH (10 knots; 5.1 m/s)
Visibility: 6 or more miles (10+ km)
Ceiling: ceiling and visibility are OK
Clouds: unknown
Weather: no significant weather observed at this time

METAR text: DAAG 030730Z 29008KT 240V320 CAVOK 22/17 Q1012
Conditions at: DAAG (DAR-EL-BEIDA/HOU, DZ) observed 0730 UTC 03 June 2020
Temperature: 22.0°C (72°F)
Dewpoint: 17.0°C (63°F) [RH = 73%]
Pressure (altimeter): 29.88 inches Hg (1012.0 mb)
Winds: from the WNW (290 degrees) at 9 MPH (8 knots; 4.1 m/s)
Visibility: 6 or more miles (10+ km)
Ceiling: ceiling and visibility are OK
Clouds: unknown
Weather: no significant weather observed at this time

METAR text: DAAG 030700Z 27007KT 220V290 CAVOK 21/17 Q1012
Conditions at: DAAG (DAR-EL-BEIDA/HOU, DZ) observed 0700 UTC 03 June 2020
Temperature: 21.0°C (70°F)
Dewpoint: 17.0°C (63°F) [RH = 78%]
Pressure (altimeter): 29.88 inches Hg (1012.0 mb)
Winds: from the W (270 degrees) at 8 MPH (7 knots; 3.6 m/s)
Visibility: 6 or more miles (10+ km)
Ceiling: ceiling and visibility are OK
Clouds: unknown
Weather: no significant weather observed at this time

METAR text: DAAG 030630Z 25007KT 220V290 CAVOK 20/17 Q1012
Conditions at: DAAG (DAR-EL-BEIDA/HOU, DZ) observed 0630 UTC 03 June 2020
Temperature: 20.0°C (68°F)
Dewpoint: 17.0°C (63°F) [RH = 83%]
Pressure (altimeter): 29.88 inches Hg (1012.0 mb)
Winds: from the WSW (250 degrees) at 8 MPH (7 knots; 3.6 m/s)
Visibility: 6 or more miles (10+ km)
Ceiling: ceiling and visibility are OK
Clouds: unknown
Weather: no significant weather observed at this time

METAR text: DAAG 030530Z 17002KT CAVOK 15/14 Q1011
Conditions at: DAAG (DAR-EL-BEIDA/HOU, DZ) observed 0530 UTC 03 June 2020
Temperature: 15.0°C (59°F)
Dewpoint: 14.0°C (57°F) [RH = 94%]
Pressure (altimeter): 29.85 inches Hg (1011.0 mb)
Winds: from the S (170 degrees) at 2 MPH (2 knots; 1.0 m/s)
Visibility: 6 or more miles (10+ km)
Ceiling: ceiling and visibility are OK
Clouds: unknown
Weather: no significant weather observed at this time

METAR text: DAAG 030500Z 00000KT CAVOK 15/14 Q1011
Conditions at: DAAG (DAR-EL-BEIDA/HOU, DZ) observed 0500 UTC 03 June 2020
Temperature: 15.0°C (59°F)
Dewpoint: 14.0°C (57°F) [RH = 94%]
Pressure (altimeter): 29.85 inches Hg (1011.0 mb)
Winds: calm
Visibility: 6 or more miles (10+ km)
Ceiling: ceiling and visibility are OK
Clouds: unknown
Weather: no significant weather observed at this time

METAR text: DAAG 030430Z 08003KT CAVOK 15/15 Q1011
Conditions at: DAAG (DAR-EL-BEIDA/HOU, DZ) observed 0430 UTC 03 June 2020
Temperature: 15.0°C (59°F)
Dewpoint: 15.0°C (59°F) [RH = 100%]
Pressure (altimeter): 29.85 inches Hg (1011.0 mb)
Winds: from the E (80 degrees) at 3 MPH (3 knots; 1.5 m/s)
Visibility: 6 or more miles (10+ km)
Ceiling: ceiling and visibility are OK
Clouds: unknown
Weather: no significant weather observed at this time

METAR text: DAAG 030400Z 16003KT CAVOK 15/15 Q1011
Conditions at: DAAG (DAR-EL-BEIDA/HOU, DZ) observed 0400 UTC 03 June 2020
Temperature: 15.0°C (59°F)
Dewpoint: 15.0°C (59°F) [RH = 100%]
Pressure (altimeter): 29.85 inches Hg (1011.0 mb)
Winds: from the SSE (160 degrees) at 3 MPH (3 knots; 1.5 m/s)
Visibility: 6 or more miles (10+ km)
Ceiling: ceiling and visibility are OK
Clouds: unknown
Weather: no significant weather observed at this time

METAR text: DAAG 030330Z 14003KT CAVOK 15/15 Q1011
Conditions at: DAAG (DAR-EL-BEIDA/HOU, DZ) observed 0330 UTC 03 June 2020
Temperature: 15.0°C (59°F)
Dewpoint: 15.0°C (59°F) [RH = 100%]
Pressure (altimeter): 29.85 inches Hg (1011.0 mb)
Winds: from the SE (140 degrees) at 3 MPH (3 knots; 1.5 m/s)
Visibility: 6 or more miles (10+ km)
Ceiling: ceiling and visibility are OK
Clouds: unknown
Weather: no significant weather observed at this time

METAR text: DAAG 030300Z 32001KT CAVOK 15/14 Q1011
Conditions at: DAAG (DAR-EL-BEIDA/HOU, DZ) observed 0300 UTC 03 June 2020
Temperature: 15.0°C (59°F)
Dewpoint: 14.0°C (57°F) [RH = 94%]
Pressure (altimeter): 29.85 inches Hg (1011.0 mb)
Winds: from the NW (320 degrees) at 1 MPH (1 knots; 0.5 m/s)
Visibility: 6 or more miles (10+ km)
Ceiling: ceiling and visibility are OK
Clouds: unknown
Weather: no significant weather observed at this time

METAR text: DAAG 030230Z 00000KT CAVOK 16/15 Q1011
Conditions at: DAAG (DAR-EL-BEIDA/HOU, DZ) observed 0230 UTC 03 June 2020
Temperature: 16.0°C (61°F)
Dewpoint: 15.0°C (59°F) [RH = 94%]
Pressure (altimeter): 29.85 inches Hg (1011.0 mb)
Winds: calm
Visibility: 6 or more miles (10+ km)
Ceiling: ceiling and visibility are OK
Clouds: unknown
Weather: no significant weather observed at this time

METAR text: DAAG 030200Z 25002KT CAVOK 16/15 Q1012
Conditions at: DAAG (DAR-EL-BEIDA/HOU, DZ) observed 0200 UTC 03 June 2020
Temperature: 16.0°C (61°F)
Dewpoint: 15.0°C (59°F) [RH = 94%]
Pressure (altimeter): 29.88 inches Hg (1012.0 mb)
Winds: from the WSW (250 degrees) at 2 MPH (2 knots; 1.0 m/s)
Visibility: 6 or more miles (10+ km)
Ceiling: ceiling and visibility are OK
Clouds: unknown
Weather: no significant weather observed at this time

METAR text: DAAG 030130Z 23003KT CAVOK 16/15 Q1012
Conditions at: DAAG (DAR-EL-BEIDA/HOU, DZ) observed 0130 UTC 03 June 2020
Temperature: 16.0°C (61°F)
Dewpoint: 15.0°C (59°F) [RH = 94%]
Pressure (altimeter): 29.88 inches Hg (1012.0 mb)
Winds: from the SW (230 degrees) at 3 MPH (3 knots; 1.5 m/s)
Visibility: 6 or more miles (10+ km)
Ceiling: ceiling and visibility are OK
Clouds: unknown
Weather: no significant weather observed at this time

METAR text: DAAG 030100Z 27002KT CAVOK 16/15 Q1012
Conditions at: DAAG (DAR-EL-BEIDA/HOU, DZ) observed 0100 UTC 03 June 2020
Temperature: 16.0°C (61°F)
Dewpoint: 15.0°C (59°F) [RH = 94%]
Pressure (altimeter): 29.88 inches Hg (1012.0 mb)
Winds: from the W (270 degrees) at 2 MPH (2 knots; 1.0 m/s)
Visibility: 6 or more miles (10+ km)
Ceiling: ceiling and visibility are OK
Clouds: unknown
Weather: no significant weather observed at this time

METAR text: DAAG 030030Z 21003KT CAVOK 16/15 Q1012
Conditions at: DAAG (DAR-EL-BEIDA/HOU, DZ) observed 0030 UTC 03 June 2020
Temperature: 16.0°C (61°F)
Dewpoint: 15.0°C (59°F) [RH = 94%]
Pressure (altimeter): 29.88 inches Hg (1012.0 mb)
Winds: from the SSW (210 degrees) at 3 MPH (3 knots; 1.5 m/s)
Visibility: 6 or more miles (10+ km)
Ceiling: ceiling and visibility are OK
Clouds: unknown
Weather: no significant weather observed at this time

METAR text: DAAG 030000Z 20003KT CAVOK 17/16 Q1012
Conditions at: DAAG (DAR-EL-BEIDA/HOU, DZ) observed 0000 UTC 03 June 2020
Temperature: 17.0°C (63°F)
Dewpoint: 16.0°C (61°F) [RH = 94%]
Pressure (altimeter): 29.88 inches Hg (1012.0 mb)
Winds: from the SSW (200 degrees) at 3 MPH (3 knots; 1.5 m/s)
Visibility: 6 or more miles (10+ km)
Ceiling: ceiling and visibility are OK
Clouds: unknown
Weather: no significant weather observed at this time

METAR text: DAAG 022330Z VRB01KT CAVOK 17/16 Q1012
Conditions at: DAAG (DAR-EL-BEIDA/HOU, DZ) observed 2330 UTC 02 June 2020
Temperature: 17.0°C (63°F)
Dewpoint: 16.0°C (61°F) [RH = 94%]
Pressure (altimeter): 29.88 inches Hg (1012.0 mb)
Winds: variable direction winds at 1 MPH (1 knots; 0.5 m/s)
Visibility: 6 or more miles (10+ km)
Ceiling: ceiling and visibility are OK
Clouds: unknown
Weather: no significant weather observed at this time

METAR text: DAAG 022300Z VRB02KT CAVOK 17/16 Q1012
Conditions at: DAAG (DAR-EL-BEIDA/HOU, DZ) observed 2300 UTC 02 June 2020
Temperature: 17.0°C (63°F)
Dewpoint: 16.0°C (61°F) [RH = 94%]
Pressure (altimeter): 29.88 inches Hg (1012.0 mb)
Winds: variable direction winds at 2 MPH (2 knots; 1.0 m/s)
Visibility: 6 or more miles (10+ km)
Ceiling: ceiling and visibility are OK
Clouds: unknown
Weather: no significant weather observed at this time

METAR text: DAAG 022230Z 27003KT CAVOK 18/16 Q1013
Conditions at: DAAG (DAR-EL-BEIDA/HOU, DZ) observed 2230 UTC 02 June 2020
Temperature: 18.0°C (64°F)
Dewpoint: 16.0°C (61°F) [RH = 88%]
Pressure (altimeter): 29.91 inches Hg (1013.0 mb)
Winds: from the W (270 degrees) at 3 MPH (3 knots; 1.5 m/s)
Visibility: 6 or more miles (10+ km)
Ceiling: ceiling and visibility are OK
Clouds: unknown
Weather: no significant weather observed at this time

METAR text: DAAG 022200Z 26003KT 230V290 CAVOK 18/17 Q1013
Conditions at: DAAG (DAR-EL-BEIDA/HOU, DZ) observed 2200 UTC 02 June 2020
Temperature: 18.0°C (64°F)
Dewpoint: 17.0°C (63°F) [RH = 94%]
Pressure (altimeter): 29.91 inches Hg (1013.0 mb)
Winds: from the W (260 degrees) at 3 MPH (3 knots; 1.5 m/s)
Visibility: 6 or more miles (10+ km)
Ceiling: ceiling and visibility are OK
Clouds: unknown
Weather: no significant weather observed at this time

METAR text: DAAG 022130Z VRB02KT CAVOK 18/16 Q1013
Conditions at: DAAG (DAR-EL-BEIDA/HOU, DZ) observed 2130 UTC 02 June 2020
Temperature: 18.0°C (64°F)
Dewpoint: 16.0°C (61°F) [RH = 88%]
Pressure (altimeter): 29.91 inches Hg (1013.0 mb)
Winds: variable direction winds at 2 MPH (2 knots; 1.0 m/s)
Visibility: 6 or more miles (10+ km)
Ceiling: ceiling and visibility are OK
Clouds: unknown
Weather: no significant weather observed at this time

METAR text: DAAG 022100Z VRB02KT CAVOK 19/17 Q1013
Conditions at: DAAG (DAR-EL-BEIDA/HOU, DZ) observed 2100 UTC 02 June 2020
Temperature: 19.0°C (66°F)
Dewpoint: 17.0°C (63°F) [RH = 88%]
Pressure (altimeter): 29.91 inches Hg (1013.0 mb)
Winds: variable direction winds at 2 MPH (2 knots; 1.0 m/s)
Visibility: 6 or more miles (10+ km)
Ceiling: ceiling and visibility are OK
Clouds: unknown
Weather: no significant weather observed at this time

METAR text: DAAG 022030Z 36002KT CAVOK 19/17 Q1013
Conditions at: DAAG (DAR-EL-BEIDA/HOU, DZ) observed 2030 UTC 02 June 2020
Temperature: 19.0°C (66°F)
Dewpoint: 17.0°C (63°F) [RH = 88%]
Pressure (altimeter): 29.91 inches Hg (1013.0 mb)
Winds: from the N (360 degrees) at 2 MPH (2 knots; 1.0 m/s)
Visibility: 6 or more miles (10+ km)
Ceiling: ceiling and visibility are OK
Clouds: unknown
Weather: no significant weather observed at this time

METAR text: DAAG 022000Z 03004KT CAVOK 20/17 Q1013
Conditions at: DAAG (DAR-EL-BEIDA/HOU, DZ) observed 2000 UTC 02 June 2020
Temperature: 20.0°C (68°F)
Dewpoint: 17.0°C (63°F) [RH = 83%]
Pressure (altimeter): 29.91 inches Hg (1013.0 mb)
Winds: from the NNE (30 degrees) at 5 MPH (4 knots; 2.1 m/s)
Visibility: 6 or more miles (10+ km)
Ceiling: ceiling and visibility are OK
Clouds: unknown
Weather: no significant weather observed at this time

METAR text: DAAG 021930Z 05005KT 020V080 CAVOK 21/17 Q1013
Conditions at: DAAG (DAR-EL-BEIDA/HOU, DZ) observed 1930 UTC 02 June 2020
Temperature: 21.0°C (70°F)
Dewpoint: 17.0°C (63°F) [RH = 78%]
Pressure (altimeter): 29.91 inches Hg (1013.0 mb)
Winds: from the NE (50 degrees) at 6 MPH (5 knots; 2.6 m/s)
Visibility: 6 or more miles (10+ km)
Ceiling: ceiling and visibility are OK
Clouds: unknown
Weather: no significant weather observed at this time

METAR text: DAAG 021830Z 07006KT CAVOK 22/17 Q1013
Conditions at: DAAG (DAR-EL-BEIDA/HOU, DZ) observed 1830 UTC 02 June 2020
Temperature: 22.0°C (72°F)
Dewpoint: 17.0°C (63°F) [RH = 73%]
Pressure (altimeter): 29.91 inches Hg (1013.0 mb)
Winds: from the ENE (70 degrees) at 7 MPH (6 knots; 3.1 m/s)
Visibility: 6 or more miles (10+ km)
Ceiling: ceiling and visibility are OK
Clouds: unknown
Weather: no significant weather observed at this time

METAR text: DAAG 021800Z 07007KT 040V100 CAVOK 23/17 Q1013
Conditions at: DAAG (DAR-EL-BEIDA/HOU, DZ) observed 1800 UTC 02 June 2020
Temperature: 23.0°C (73°F)
Dewpoint: 17.0°C (63°F) [RH = 69%]
Pressure (altimeter): 29.91 inches Hg (1013.0 mb)
Winds: from the ENE (70 degrees) at 8 MPH (7 knots; 3.6 m/s)
Visibility: 6 or more miles (10+ km)
Ceiling: ceiling and visibility are OK
Clouds: unknown
Weather: no significant weather observed at this time

METAR text: DAAG 021730Z 06009KT CAVOK 24/16 Q1013
Conditions at: DAAG (DAR-EL-BEIDA/HOU, DZ) observed 1730 UTC 02 June 2020
Temperature: 24.0°C (75°F)
Dewpoint: 16.0°C (61°F) [RH = 61%]
Pressure (altimeter): 29.91 inches Hg (1013.0 mb)
Winds: from the ENE (60 degrees) at 10 MPH (9 knots; 4.6 m/s)
Visibility: 6 or more miles (10+ km)
Ceiling: ceiling and visibility are OK
Clouds: unknown
Weather: no significant weather observed at this time

METAR text: DAAG 021700Z 07011KT CAVOK 25/17 Q1013
Conditions at: DAAG (DAR-EL-BEIDA/HOU, DZ) observed 1700 UTC 02 June 2020
Temperature: 25.0°C (77°F)
Dewpoint: 17.0°C (63°F) [RH = 61%]
Pressure (altimeter): 29.91 inches Hg (1013.0 mb)
Winds: from the ENE (70 degrees) at 13 MPH (11 knots; 5.7 m/s)
Visibility: 6 or more miles (10+ km)
Ceiling: ceiling and visibility are OK
Clouds: unknown
Weather: no significant weather observed at this time

METAR text: DAAG 021630Z 06010KT CAVOK 25/17 Q1013
Conditions at: DAAG (DAR-EL-BEIDA/HOU, DZ) observed 1630 UTC 02 June 2020
Temperature: 25.0°C (77°F)
Dewpoint: 17.0°C (63°F) [RH = 61%]
Pressure (altimeter): 29.91 inches Hg (1013.0 mb)
Winds: from the ENE (60 degrees) at 12 MPH (10 knots; 5.1 m/s)
Visibility: 6 or more miles (10+ km)
Ceiling: ceiling and visibility are OK
Clouds: unknown
Weather: no significant weather observed at this time

METAR text: DAAG 021600Z 06010KT CAVOK 26/16 Q1013
Conditions at: DAAG (DAR-EL-BEIDA/HOU, DZ) observed 1600 UTC 02 June 2020
Temperature: 26.0°C (79°F)
Dewpoint: 16.0°C (61°F) [RH = 54%]
Pressure (altimeter): 29.91 inches Hg (1013.0 mb)
Winds: from the ENE (60 degrees) at 12 MPH (10 knots; 5.1 m/s)
Visibility: 6 or more miles (10+ km)
Ceiling: ceiling and visibility are OK
Clouds: unknown
Weather: no significant weather observed at this time

METAR text: DAAG 021530Z 06010KT 030V090 CAVOK 27/16 Q1013
Conditions at: DAAG (DAR-EL-BEIDA/HOU, DZ) observed 1530 UTC 02 June 2020
Temperature: 27.0°C (81°F)
Dewpoint: 16.0°C (61°F) [RH = 51%]
Pressure (altimeter): 29.91 inches Hg (1013.0 mb)
Winds: from the ENE (60 degrees) at 12 MPH (10 knots; 5.1 m/s)
Visibility: 6 or more miles (10+ km)
Ceiling: ceiling and visibility are OK
Clouds: unknown
Weather: no significant weather observed at this time

METAR text: DAAG 021500Z 06010KT 040V100 CAVOK 27/17 Q1014
Conditions at: DAAG (DAR-EL-BEIDA/HOU, DZ) observed 1500 UTC 02 June 2020
Temperature: 27.0°C (81°F)
Dewpoint: 17.0°C (63°F) [RH = 54%]
Pressure (altimeter): 29.94 inches Hg (1014.0 mb)
Winds: from the ENE (60 degrees) at 12 MPH (10 knots; 5.1 m/s)
Visibility: 6 or more miles (10+ km)
Ceiling: ceiling and visibility are OK
Clouds: unknown
Weather: no significant weather observed at this time

METAR text: DAAG 021430Z 06010KT 030V100 CAVOK 28/17 Q1014
Conditions at: DAAG (DAR-EL-BEIDA/HOU, DZ) observed 1430 UTC 02 June 2020
Temperature: 28.0°C (82°F)
Dewpoint: 17.0°C (63°F) [RH = 51%]
Pressure (altimeter): 29.94 inches Hg (1014.0 mb)
Winds: from the ENE (60 degrees) at 12 MPH (10 knots; 5.1 m/s)
Visibility: 6 or more miles (10+ km)
Ceiling: ceiling and visibility are OK
Clouds: unknown
Weather: no significant weather observed at this time

METAR text: DAAG 021400Z 07009KT 030V110 CAVOK 28/16 Q1014
Conditions at: DAAG (DAR-EL-BEIDA/HOU, DZ) observed 1400 UTC 02 June 2020
Temperature: 28.0°C (82°F)
Dewpoint: 16.0°C (61°F) [RH = 48%]
Pressure (altimeter): 29.94 inches Hg (1014.0 mb)
Winds: from the ENE (70 degrees) at 10 MPH (9 knots; 4.6 m/s)
Visibility: 6 or more miles (10+ km)
Ceiling: ceiling and visibility are OK
Clouds: unknown
Weather: no significant weather observed at this time

METAR text: DAAG 021330Z 06009KT 030V100 CAVOK 29/13 Q1014
Conditions at: DAAG (DAR-EL-BEIDA/HOU, DZ) observed 1330 UTC 02 June 2020
Temperature: 29.0°C (84°F)
Dewpoint: 13.0°C (55°F) [RH = 37%]
Pressure (altimeter): 29.94 inches Hg (1014.0 mb)
Winds: from the ENE (60 degrees) at 10 MPH (9 knots; 4.6 m/s)
Visibility: 6 or more miles (10+ km)
Ceiling: ceiling and visibility are OK
Clouds: unknown
Weather: no significant weather observed at this time

METAR text: DAAG 021300Z 07008KT 030V110 CAVOK 28/15 Q1014
Conditions at: DAAG (DAR-EL-BEIDA/HOU, DZ) observed 1300 UTC 02 June 2020
Temperature: 28.0°C (82°F)
Dewpoint: 15.0°C (59°F) [RH = 45%]
Pressure (altimeter): 29.94 inches Hg (1014.0 mb)
Winds: from the ENE (70 degrees) at 9 MPH (8 knots; 4.1 m/s)
Visibility: 6 or more miles (10+ km)
Ceiling: ceiling and visibility are OK
Clouds: unknown
Weather: no significant weather observed at this time

METAR text: DAAG 021230Z 06009KT 030V090 CAVOK 28/16 Q1015
Conditions at: DAAG (DAR-EL-BEIDA/HOU, DZ) observed 1230 UTC 02 June 2020
Temperature: 28.0°C (82°F)
Dewpoint: 16.0°C (61°F) [RH = 48%]
Pressure (altimeter): 29.97 inches Hg (1015.0 mb)
Winds: from the ENE (60 degrees) at 10 MPH (9 knots; 4.6 m/s)
Visibility: 6 or more miles (10+ km)
Ceiling: ceiling and visibility are OK
Clouds: unknown
Weather: no significant weather observed at this time

METAR text: DAAG 021200Z 05009KT 020V090 CAVOK 28/16 Q1015
Conditions at: DAAG (DAR-EL-BEIDA/HOU, DZ) observed 1200 UTC 02 June 2020
Temperature: 28.0°C (82°F)
Dewpoint: 16.0°C (61°F) [RH = 48%]
Pressure (altimeter): 29.97 inches Hg (1015.0 mb)
Winds: from the NE (50 degrees) at 10 MPH (9 knots; 4.6 m/s)
Visibility: 6 or more miles (10+ km)
Ceiling: ceiling and visibility are OK
Clouds: unknown
Weather: no significant weather observed at this time

METAR text: DAAG 021130Z 02009KT 350V060 CAVOK 28/16 Q1015
Conditions at: DAAG (DAR-EL-BEIDA/HOU, DZ) observed 1130 UTC 02 June 2020
Temperature: 28.0°C (82°F)
Dewpoint: 16.0°C (61°F) [RH = 48%]
Pressure (altimeter): 29.97 inches Hg (1015.0 mb)
Winds: from the NNE (20 degrees) at 10 MPH (9 knots; 4.6 m/s)
Visibility: 6 or more miles (10+ km)
Ceiling: ceiling and visibility are OK
Clouds: unknown
Weather: no significant weather observed at this time

METAR text: DAAG 021100Z 02008KT 350V050 CAVOK 28/17 Q1015
Conditions at: DAAG (DAR-EL-BEIDA/HOU, DZ) observed 1100 UTC 02 June 2020
Temperature: 28.0°C (82°F)
Dewpoint: 17.0°C (63°F) [RH = 51%]
Pressure (altimeter): 29.97 inches Hg (1015.0 mb)
Winds: from the NNE (20 degrees) at 9 MPH (8 knots; 4.1 m/s)
Visibility: 6 or more miles (10+ km)
Ceiling: ceiling and visibility are OK
Clouds: unknown
Weather: no significant weather observed at this time

METAR text: DAAG 021030Z 01009KT CAVOK 28/17 Q1015
Conditions at: DAAG (DAR-EL-BEIDA/HOU, DZ) observed 1030 UTC 02 June 2020
Temperature: 28.0°C (82°F)
Dewpoint: 17.0°C (63°F) [RH = 51%]
Pressure (altimeter): 29.97 inches Hg (1015.0 mb)
Winds: from the N (10 degrees) at 10 MPH (9 knots; 4.6 m/s)
Visibility: 6 or more miles (10+ km)
Ceiling: ceiling and visibility are OK
Clouds: unknown
Weather: no significant weather observed at this time

METAR text: DAAG 021000Z 01006KT 340V050 CAVOK 27/18 Q1015
Conditions at: DAAG (DAR-EL-BEIDA/HOU, DZ) observed 1000 UTC 02 June 2020
Temperature: 27.0°C (81°F)
Dewpoint: 18.0°C (64°F) [RH = 58%]
Pressure (altimeter): 29.97 inches Hg (1015.0 mb)
Winds: from the N (10 degrees) at 7 MPH (6 knots; 3.1 m/s)
Visibility: 6 or more miles (10+ km)
Ceiling: ceiling and visibility are OK
Clouds: unknown
Weather: no significant weather observed at this time

METAR text: DAAG 020930Z 02008KT CAVOK 26/17 Q1015
Conditions at: DAAG (DAR-EL-BEIDA/HOU, DZ) observed 0930 UTC 02 June 2020
Temperature: 26.0°C (79°F)
Dewpoint: 17.0°C (63°F) [RH = 58%]
Pressure (altimeter): 29.97 inches Hg (1015.0 mb)
Winds: from the NNE (20 degrees) at 9 MPH (8 knots; 4.1 m/s)
Visibility: 6 or more miles (10+ km)
Ceiling: ceiling and visibility are OK
Clouds: unknown
Weather: no significant weather observed at this time

METAR text: DAAG 020900Z VRB02KT CAVOK 26/17 Q1015
Conditions at: DAAG (DAR-EL-BEIDA/HOU, DZ) observed 0900 UTC 02 June 2020
Temperature: 26.0°C (79°F)
Dewpoint: 17.0°C (63°F) [RH = 58%]
Pressure (altimeter): 29.97 inches Hg (1015.0 mb)
Winds: variable direction winds at 2 MPH (2 knots; 1.0 m/s)
Visibility: 6 or more miles (10+ km)
Ceiling: ceiling and visibility are OK
Clouds: unknown
Weather: no significant weather observed at this time

METAR text: DAAG 020830Z VRB02KT CAVOK 26/17 Q1015
Conditions at: DAAG (DAR-EL-BEIDA/HOU, DZ) observed 0830 UTC 02 June 2020
Temperature: 26.0°C (79°F)
Dewpoint: 17.0°C (63°F) [RH = 58%]
Pressure (altimeter): 29.97 inches Hg (1015.0 mb)
Winds: variable direction winds at 2 MPH (2 knots; 1.0 m/s)
Visibility: 6 or more miles (10+ km)
Ceiling: ceiling and visibility are OK
Clouds: unknown
Weather: no significant weather observed at this time

METAR text: DAAG 020800Z VRB01KT CAVOK 24/18 Q1015
Conditions at: DAAG (DAR-EL-BEIDA/HOU, DZ) observed 0800 UTC 02 June 2020
Temperature: 24.0°C (75°F)
Dewpoint: 18.0°C (64°F) [RH = 69%]
Pressure (altimeter): 29.97 inches Hg (1015.0 mb)
Winds: variable direction winds at 1 MPH (1 knots; 0.5 m/s)
Visibility: 6 or more miles (10+ km)
Ceiling: ceiling and visibility are OK
Clouds: unknown
Weather: no significant weather observed at this time

METAR text: DAAG 020730Z 00000KT CAVOK 22/19 Q1015
Conditions at: DAAG (DAR-EL-BEIDA/HOU, DZ) observed 0730 UTC 02 June 2020
Temperature: 22.0°C (72°F)
Dewpoint: 19.0°C (66°F) [RH = 83%]
Pressure (altimeter): 29.97 inches Hg (1015.0 mb)
Winds: calm
Visibility: 6 or more miles (10+ km)
Ceiling: ceiling and visibility are OK
Clouds: unknown
Weather: no significant weather observed at this time

METAR text: DAAG 020700Z VRB01KT CAVOK 21/19 Q1015
Conditions at: DAAG (DAR-EL-BEIDA/HOU, DZ) observed 0700 UTC 02 June 2020
Temperature: 21.0°C (70°F)
Dewpoint: 19.0°C (66°F) [RH = 88%]
Pressure (altimeter): 29.97 inches Hg (1015.0 mb)
Winds: variable direction winds at 1 MPH (1 knots; 0.5 m/s)
Visibility: 6 or more miles (10+ km)
Ceiling: ceiling and visibility are OK
Clouds: unknown
Weather: no significant weather observed at this time

METAR text: DAAG 020630Z 00000KT 9999 FEW010 20/19 Q1015
Conditions at: DAAG (DAR-EL-BEIDA/HOU, DZ) observed 0630 UTC 02 June 2020
Temperature: 20.0°C (68°F)
Dewpoint: 19.0°C (66°F) [RH = 94%]
Pressure (altimeter): 29.97 inches Hg (1015.0 mb)
Winds: calm
Visibility: 6 or more miles (10+ km)
Ceiling: at least 12,000 feet AGL
Clouds: few clouds at 1000 feet AGL
Weather: no significant weather observed at this time

METAR text: DAAG 020600Z 00000KT 4000 BR FEW010 18/17 Q1015
Conditions at: DAAG (DAR-EL-BEIDA/HOU, DZ) observed 0600 UTC 02 June 2020
Temperature: 18.0°C (64°F)
Dewpoint: 17.0°C (63°F) [RH = 94%]
Pressure (altimeter): 29.97 inches Hg (1015.0 mb)
Winds: calm
Visibility: 2.49 miles (4.01 km)
Ceiling: at least 12,000 feet AGL
Clouds: few clouds at 1000 feet AGL
Weather: BR  (mist)

METAR text: DAAG 020530Z 22001KT 3000 BR FEW010 15/14 Q1015
Conditions at: DAAG (DAR-EL-BEIDA/HOU, DZ) observed 0530 UTC 02 June 2020
Temperature: 15.0°C (59°F)
Dewpoint: 14.0°C (57°F) [RH = 94%]
Pressure (altimeter): 29.97 inches Hg (1015.0 mb)
Winds: from the SW (220 degrees) at 1 MPH (1 knots; 0.5 m/s)
Visibility: 1.86 miles (2.99 km)
Ceiling: at least 12,000 feet AGL
Clouds: few clouds at 1000 feet AGL
Weather: BR  (mist)

METAR text: DAAG 020500Z 29001KT 0400 R09/0375V1500U FG FEW010 14/14 Q1014
Conditions at: DAAG (DAR-EL-BEIDA/HOU, DZ) observed 0500 UTC 02 June 2020
Temperature: 14.0°C (57°F)
Dewpoint: 14.0°C (57°F) [RH = 100%]
Pressure (altimeter): 29.94 inches Hg (1014.0 mb)
Winds: from the WNW (290 degrees) at 1 MPH (1 knots; 0.5 m/s)
Visibility: 0.25 miles (0.40 km)
Ceiling: at least 12,000 feet AGL
Clouds: few clouds at 1000 feet AGL
Weather: FG  (fog)

Forecast for: DAAG (DAR-EL-BEIDA/HOU, DZ)
Text: TAF DAAG 031100Z 0312/0412 34012KT CAVOK
Forecast period: 1200 to 1600 UTC 03 June 2020
Forecast type: FROM: standard forecast or significant change
Winds: from the NNW (340 degrees) at 14 MPH (12 knots; 6.2 m/s)
Visibility: 6 or more miles 10+ km)
Ceiling: unknown
Clouds: missing
Weather: NSW  (no significant weather)
Text: BECMG 0316/0319 VRB02KT
Forecast period: 1600 UTC 03 June 2020 to 0700 UTC 04 June 2020
Forecast type: BECOMING: Conditions expected to become as follows by 1900 UTC 03 June 2020
Winds: variable direction winds at 2 MPH (2 knots; 1.0 m/s)
Visibility: 6 or more miles 10+ km)
Ceiling: unknown
Clouds: missing
Weather: NSW  (no significant weather)
Text: BECMG 0407/0409 24010KT
Forecast period: 0700 to 1000 UTC 04 June 2020
Forecast type: BECOMING: Conditions expected to become as follows by 0900 UTC 04 June 2020
Winds: from the WSW (240 degrees) at 12 MPH (10 knots; 5.1 m/s)
Visibility: 6 or more miles 10+ km)
Ceiling: unknown
Clouds: missing
Weather: NSW  (no significant weather)
Text: BECMG 0410/0412 32020KT
Forecast period: 1000 to 1200 UTC 04 June 2020
Forecast type: BECOMING: Conditions expected to become as follows by 1200 UTC 04 June 2020
Winds: from the NW (320 degrees) at 23 MPH (20 knots; 10.3 m/s)
Visibility: 6 or more miles 10+ km)
Ceiling: unknown
Clouds: missing
Weather: NSW  (no significant weather)